createdAt,value
2022-10-15T06:17:27.204Z,74.32
2022-10-15T06:19:54.024Z,78.50
2022-10-15T06:22:20.888Z,76.18
2022-10-15T06:24:47.681Z,78.60
2022-10-15T06:27:14.501Z,75.10
2022-10-15T10:56:45.797Z,99.88
2022-10-15T10:59:21.056Z,89.93
2022-10-15T11:01:50.147Z,92.75
2022-10-15T11:04:24.875Z,102.28
2022-10-15T11:07:17.184Z,104.53
2022-10-15T11:09:59.796Z,93.70
2022-10-15T11:12:53.439Z,98.72
2022-10-15T11:15:54.077Z,90.55
2022-10-15T11:18:26.592Z,103.32
2022-10-15T11:23:49.552Z,97.50
2022-10-15T11:26:52.431Z,91.43
2022-10-15T11:30:01.140Z,106.93
2022-10-15T11:33:12.422Z,88.82
2022-10-15T11:35:53.354Z,98.07
2022-10-15T11:38:49.555Z,93.57
2022-10-15T11:41:57.714Z,93.22
2022-10-15T11:44:46.520Z,89.55
2022-10-15T11:47:14.764Z,101.50
2022-10-15T11:49:52.997Z,83.78
2022-10-15T11:52:26.976Z,94.70
2022-10-15T11:55:02.362Z,86.53
2022-10-15T11:57:33.030Z,81.43
2022-10-15T12:00:15.548Z,102.93
2022-10-15T12:02:45.319Z,93.78
2022-10-15T12:05:21.208Z,93.72
2022-10-15T12:07:50.066Z,92.55
2022-10-15T12:10:47.819Z,92.95
2022-10-15T12:13:36.095Z,91.80
2022-10-15T12:16:15.752Z,89.32
2022-10-15T12:18:48.453Z,91.13
2022-10-15T17:53:45.450Z,83.50
2022-10-15T17:56:24.550Z,94.57
2022-10-15T17:58:54.113Z,84.05
2022-10-15T18:01:39.241Z,89.53
2022-10-15T18:04:13.256Z,92.00
2022-10-15T18:06:44.915Z,85.85
2022-10-15T18:09:23.984Z,88.10
2022-10-15T18:11:50.996Z,85.30
2022-10-15T18:14:18.674Z,73.85
2022-10-15T18:16:45.879Z,89.43
2022-10-15T18:19:12.951Z,85.85
2022-10-15T18:21:39.827Z,76.60
2022-10-15T18:24:06.638Z,94.57
2022-10-15T18:26:33.574Z,86.32
2022-10-15T18:29:00.502Z,76.60
2022-10-15T18:31:27.439Z,96.97
2022-10-15T18:33:55.978Z,83.80
2022-10-15T18:36:28.270Z,81.60
2022-10-15T18:38:55.963Z,86.82
2022-10-15T18:41:33.667Z,90.22
2022-10-15T18:44:03.579Z,89.95
2022-10-15T18:46:33.892Z,100.13
2022-10-15T18:49:01.626Z,87.57
2022-10-15T18:51:32.506Z,90.97
2022-10-15T18:54:00.626Z,98.93
2022-10-15T18:56:27.991Z,101.53
2022-10-15T18:58:55.186Z,89.90
2022-10-15T19:01:29.255Z,84.28
2022-10-15T19:03:58.221Z,79.53
2022-10-15T19:06:34.891Z,85.38
2022-10-15T19:09:04.106Z,83.30
2022-10-15T19:11:33.925Z,81.38
2022-10-15T19:14:02.799Z,102.05
2022-10-15T19:16:30.298Z,77.97
2022-10-15T19:19:03.272Z,83.78
2022-10-15T19:21:30.762Z,103.65
2022-10-15T19:23:57.964Z,110.07
2022-10-15T19:26:24.835Z,94.30
2022-10-15T19:28:52.267Z,100.53
2022-10-15T19:31:28.616Z,84.97
2022-10-15T19:33:58.099Z,82.68
2022-10-15T19:36:34.332Z,81.97
2022-10-15T19:39:12.247Z,69.25
2022-10-15T19:41:40.542Z,74.93
2022-10-15T19:44:08.443Z,76.07
2022-10-15T19:46:38.900Z,80.00
2022-10-15T19:49:07.195Z,85.63
2022-10-15T19:51:34.874Z,84.63
2022-10-15T19:54:02.169Z,76.90
2022-10-15T19:56:32.969Z,73.47
2022-10-15T19:59:02.223Z,76.80
2022-10-15T20:01:30.320Z,72.78
2022-10-15T20:04:04.890Z,65.95
2022-10-15T20:06:39.416Z,69.88
2022-10-15T20:09:07.422Z,74.88
2022-10-15T20:11:34.452Z,68.65
2022-10-15T20:14:01.679Z,67.22
2022-10-15T20:16:32.455Z,89.68
2022-10-15T20:19:02.021Z,73.78
2022-10-15T20:21:28.979Z,76.40
2022-10-15T20:23:56.033Z,66.32
2022-10-15T20:26:23.920Z,64.80
2022-10-15T20:28:51.216Z,79.15
2022-10-15T20:31:28.283Z,70.72
2022-10-15T20:33:55.512Z,77.60
2022-10-15T20:36:24.321Z,82.57
2022-10-15T20:38:52.213Z,70.45
2022-10-15T20:41:19.796Z,75.32
2022-10-15T20:43:51.210Z,76.15
2022-10-15T20:46:46.944Z,66.90
2022-10-15T20:49:21.386Z,98.43
2022-10-15T20:51:49.287Z,64.05
2022-10-15T20:54:17.851Z,74.47
2022-10-15T20:56:45.235Z,72.95
2022-10-15T20:59:12.404Z,62.63
2022-10-15T21:01:39.525Z,62.53
2022-10-15T21:04:06.761Z,72.55
2022-10-15T21:06:33.560Z,77.70
2022-10-15T21:09:00.777Z,65.50
2022-10-15T21:11:27.652Z,62.20
2022-10-15T21:13:54.519Z,65.18
2022-10-15T21:16:24.559Z,63.65
2022-10-15T21:18:54.525Z,69.57
2022-10-15T21:21:21.500Z,62.67
2022-10-15T21:23:48.389Z,65.95
2022-10-15T21:26:17.133Z,65.43
2022-10-15T21:28:45.257Z,64.38
2022-10-15T21:31:15.815Z,56.60
2022-10-15T21:33:43.132Z,66.25
